Time;durP1;ratioP1;P1;durP2;ratioP2;P2;SDS_P1;SDS_P2;PMS_P1;PMS_P2;Temp;Humidity;BMP_temperature;BMP_pressure;BME280_temperature;BME280_humidity;BME280_pressure;Samples;Min_cycle;Max_cycle;Signal;HPM_P1;HPM_P2
2022/01/18 00:00:35;;;;;;;12.93;3.90;;;;;;;2.43;47.55;100802.81;7738232;32;37015;-71
2022/01/18 00:04:51;;;;;;;4.90;3.37;;;;;;;1.74;48.71;100825.69;7712045;32;39321;-72
2022/01/18 00:09:08;;;;;;;6.12;3.42;;;;;;;1.73;47.99;100821.34;7738196;32;39876;-72
2022/01/18 00:13:43;;;;;;;6.45;3.33;;;;;;;2.06;48.05;100829.78;7724336;32;38443;-73
2022/01/18 00:22:18;;;;;;;5.62;3.17;;;;;;;2.53;46.99;100846.41;7738085;32;40110;-70
2022/01/18 00:26:35;;;;;;;5.47;3.47;;;;;;;2.60;47.03;100847.31;7738379;32;38275;-73
2022/01/18 00:35:08;;;;;;;7.25;3.55;;;;;;;2.42;47.98;100852.31;7737789;32;37023;-71
2022/01/18 00:39:24;;;;;;;5.93;3.60;;;;;;;2.42;47.82;100871.16;7738167;32;38645;-72
2022/01/18 00:43:41;;;;;;;5.37;3.15;;;;;;;1.93;48.57;100866.47;7737789;32;40912;-70
2022/01/18 00:47:58;;;;;;;7.20;3.33;;;;;;;2.20;48.71;100875.69;7723760;32;37858;-71
2022/01/18 00:52:18;;;;;;;7.97;3.72;;;;;;;1.71;49.85;100884.37;7737540;32;37203;-70
2022/01/18 00:56:39;;;;;;;8.00;3.92;;;;;;;1.69;49.34;100892.62;7737499;32;39475;-71
2022/01/18 01:00:55;;;;;;;3.60;3.17;;;;;;;1.92;49.91;100889.03;7737235;32;40583;-71
2022/01/18 01:05:11;;;;;;;9.20;4.00;;;;;;;1.75;50.16;100893.75;7737211;32;38201;-71
2022/01/18 01:09:28;;;;;;;9.95;4.18;;;;;;;2.11;49.41;100896.50;7737357;32;37041;-71
2022/01/18 01:13:47;;;;;;;6.43;3.58;;;;;;;2.12;48.90;100908.94;7737069;32;39303;-71
2022/01/18 01:45:10;;;;;;;9.70;3.92;;;;;;;1.95;50.45;100924.44;7739235;32;37228;-70
2022/01/18 01:49:27;;;;;;;10.43;3.97;;;;;;;1.96;50.08;100925.25;7740159;32;39451;-72
2022/01/18 01:53:43;;;;;;;5.30;3.47;;;;;;;1.54;51.07;100934.84;7726387;32;38670;-71
2022/01/18 01:58:00;;;;;;;4.15;3.60;;;;;;;1.80;51.21;100926.31;7739844;32;37783;-72
2022/01/18 02:02:16;;;;;;;10.60;3.75;;;;;;;1.75;50.89;100924.16;7739499;32;37212;-71
2022/01/18 02:06:32;;;;;;;8.05;3.97;;;;;;;2.12;49.97;100925.06;7739730;32;39038;-71
2022/01/18 02:10:48;;;;;;;6.78;3.50;;;;;;;1.94;49.86;100928.13;7739676;32;39602;-71
2022/01/18 02:15:18;;;;;;;9.05;3.65;;;;;;;1.92;49.84;100927.50;7739884;32;36659;-71
2022/01/18 02:24:11;;;;;;;9.43;3.75;;;;;;;2.19;49.31;100933.19;7739587;32;39445;-72
2022/01/18 02:28:27;;;;;;;7.28;3.70;;;;;;;2.12;49.08;100949.28;7739399;32;39973;-71
2022/01/18 02:32:43;;;;;;;7.50;3.53;;;;;;;1.77;49.98;100956.25;7739286;32;37849;-71
2022/01/18 02:37:03;;;;;;;6.97;3.60;;;;;;;1.79;49.88;100949.66;7739452;32;36952;-70
2022/01/18 02:41:28;;;;;;;8.02;4.00;;;;;;;1.92;49.57;100946.31;7739435;32;39307;-71
2022/01/18 02:45:44;;;;;;;5.28;3.75;;;;;;;2.08;49.37;100958.72;7739652;32;38582;-70
2022/01/18 02:50:02;;;;;;;6.03;3.45;;;;;;;1.48;50.81;100965.94;7739052;32;38740;-71
2022/01/18 02:54:19;;;;;;;8.00;3.62;;;;;;;1.69;50.03;100973.28;7738284;32;37140;-72
2022/01/18 02:58:37;;;;;;;6.93;4.03;;;;;;;1.83;50.03;100972.47;7739102;32;39611;-72
2022/01/18 03:07:28;;;;;;;12.35;3.80;;;;;;;1.65;50.40;100966.63;7738851;32;38711;-71
2022/01/18 03:11:45;;;;;;;8.07;3.78;;;;;;;1.71;50.12;100982.03;7725187;32;38119;-71
2022/01/18 03:16:01;;;;;;;7.82;4.20;;;;;;;1.86;49.52;100980.19;7738844;32;40215;-71
2022/01/18 03:20:19;;;;;;;5.28;3.58;;;;;;;1.94;49.27;100991.88;7738734;32;40785;-71
2022/01/18 03:29:07;;;;;;;6.45;3.45;;;;;;;1.57;50.90;101018.62;7726769;32;36770;-71
2022/01/18 03:33:25;;;;;;;10.95;4.40;;;;;;;1.54;50.78;101019.00;7738595;32;39883;-71
2022/01/18 03:37:42;;;;;;;9.27;3.67;;;;;;;1.80;50.71;101028.47;7739020;32;39785;-71
2022/01/18 03:42:29;;;;;;;5.68;3.55;;;;;;;1.66;51.01;101027.44;7724909;32;37491;-72
2022/01/18 03:46:36;;;;;;;11.57;4.07;;;;;;;1.66;51.00;101022.91;7727451;32;35926;-71
2022/01/18 03:50:53;;;;;;;12.70;4.00;;;;;;;1.83;50.77;101020.88;7738385;32;39334;-71
2022/01/18 03:55:11;;;;;;;10.45;4.25;;;;;;;1.77;51.35;101029.66;7738321;32;39983;-72
2022/01/18 03:59:27;;;;;;;8.25;3.83;;;;;;;1.56;52.05;101037.63;7738232;32;37883;-71
2022/01/18 04:03:45;;;;;;;7.90;3.50;;;;;;;1.71;51.53;101049.25;7738248;32;37080;-71
2022/01/18 04:08:02;;;;;;;9.15;4.12;;;;;;;1.77;51.14;101051.19;7738117;32;39339;-71
2022/01/18 04:12:18;;;;;;;8.27;4.62;;;;;;;1.61;50.95;101067.47;7724480;32;40823;-71
2022/01/18 04:16:42;;;;;;;7.00;3.90;;;;;;;1.55;50.93;101073.56;7738010;32;39364;-71
2022/01/18 04:30:09;;;;;;;8.07;4.22;;;;;;;1.62;50.50;101085.25;7738528;32;38208;-72
2022/01/18 04:34:25;;;;;;;6.62;3.72;;;;;;;1.95;50.96;101085.81;7737826;32;37814;-70
2022/01/18 04:38:41;;;;;;;7.47;4.05;;;;;;;2.03;49.29;101095.66;7738255;32;36873;-71
2022/01/18 04:51:49;;;;;;;6.40;3.67;;;;;;;1.87;49.78;101116.31;7738037;32;36229;-70
2022/01/18 04:56:11;;;;;;;6.18;3.80;;;;;;;2.08;50.72;101109.38;7737534;32;37120;-70
2022/01/18 05:00:27;;;;;;;9.48;4.20;;;;;;;1.40;51.35;101122.75;7737489;32;40965;-71
2022/01/18 05:04:43;;;;;;;8.35;3.75;;;;;;;1.54;51.16;101136.44;7737483;32;40067;-72
2022/01/18 05:09:06;;;;;;;8.48;4.30;;;;;;;1.48;51.58;101137.97;7737247;32;37730;-70
2022/01/18 05:27:09;;;;;;;7.87;4.22;;;;;;;1.06;54.79;101177.66;7737235;32;36327;-70
2022/01/18 05:31:26;;;;;;;8.23;4.37;;;;;;;1.07;54.95;101181.19;7736828;32;37809;-70
2022/01/18 05:35:42;;;;;;;13.10;4.37;;;;;;;0.64;55.52;101178.84;7723010;32;39436;-71
2022/01/18 05:39:59;;;;;;;7.30;4.35;;;;;;;0.83;55.67;101177.62;7736443;32;39681;-72
2022/01/18 05:44:15;;;;;;;16.95;4.37;;;;;;;0.55;56.95;101174.50;7736311;32;38545;-71
2022/01/18 05:48:31;;;;;;;7.07;4.00;;;;;;;0.77;56.40;101183.66;7736351;32;37887;-69
2022/01/18 05:52:48;;;;;;;6.50;4.22;;;;;;;0.25;57.78;101178.78;7736305;32;39491;-70
2022/01/18 05:57:04;;;;;;;7.75;4.78;;;;;;;0.74;56.31;101184.88;7736017;32;40155;-70
2022/01/18 06:01:27;;;;;;;11.25;4.50;;;;;;;1.17;54.50;101195.25;7735752;32;38793;-74
2022/01/18 06:10:18;;;;;;;11.57;5.03;;;;;;;1.39;53.44;101188.25;7735871;32;39304;-71
2022/01/18 06:14:35;;;;;;;7.43;4.30;;;;;;;1.10;54.08;101205.00;7734986;32;39903;-70
2022/01/18 06:18:51;;;;;;;10.63;4.37;;;;;;;0.92;54.52;101203.41;7732043;32;37896;-69
2022/01/18 06:23:07;;;;;;;11.65;4.53;;;;;;;1.12;53.70;101193.09;7732702;32;37831;-71
2022/01/18 06:27:25;;;;;;;9.95;4.45;;;;;;;1.01;54.37;101201.53;7734731;32;39852;-71
2022/01/18 06:31:41;;;;;;;7.43;4.47;;;;;;;0.90;54.66;101205.44;7738041;32;40649;-72
2022/01/18 06:35:57;;;;;;;12.32;4.05;;;;;;;0.88;55.35;101198.56;7737482;32;38719;-72
2022/01/18 06:40:14;;;;;;;10.18;4.60;;;;;;;1.06;55.28;101203.69;7738031;32;38040;-72
2022/01/18 06:44:30;;;;;;;6.80;4.32;;;;;;;0.79;56.20;101208.47;7739052;32;39412;-71
2022/01/18 06:48:47;;;;;;;11.12;4.57;;;;;;;0.56;57.23;101219.13;7739195;32;39870;-72
2022/01/18 06:53:04;;;;;;;8.70;4.70;;;;;;;0.77;56.75;101215.06;7739078;32;38587;-70
2022/01/18 06:57:21;;;;;;;13.90;4.65;;;;;;;0.55;57.45;101220.13;7739095;32;36849;-72
2022/01/18 07:01:37;;;;;;;9.40;4.85;;;;;;;0.44;58.01;101228.53;7739033;32;40121;-72
2022/01/18 07:05:53;;;;;;;13.18;4.75;;;;;;;0.82;56.98;101231.47;7739015;32;39987;-72
2022/01/18 07:10:10;;;;;;;9.68;5.00;;;;;;;0.81;56.96;101237.84;7738907;32;37946;-71
2022/01/18 07:14:27;;;;;;;9.05;4.87;;;;;;;0.70;57.62;101242.56;7738969;32;36815;-71
2022/01/18 07:18:43;;;;;;;14.07;5.25;;;;;;;0.83;57.22;101238.50;7738985;32;39154;-71
2022/01/18 07:22:59;;;;;;;16.10;5.40;;;;;;;0.81;57.43;101240.53;7738781;32;39380;-73
2022/01/18 07:27:17;;;;;;;12.32;6.00;;;;;;;0.97;57.28;101243.19;7738605;32;37988;-72
2022/01/18 07:31:33;;;;;;;12.05;5.40;;;;;;;0.89;57.73;101230.59;7738792;32;37440;-72
2022/01/18 07:35:50;;;;;;;14.55;5.72;;;;;;;1.10;57.12;101235.41;7724905;32;40199;-72
2022/01/18 07:40:07;;;;;;;13.02;4.87;;;;;;;1.33;57.02;101237.34;7738124;32;39874;-71
2022/01/18 07:44:23;;;;;;;9.18;4.78;;;;;;;1.02;58.11;101248.00;7738526;32;37906;-70
2022/01/18 07:48:39;;;;;;;8.90;4.70;;;;;;;1.40;57.04;101246.34;7738601;32;36984;-70
2022/01/18 07:52:56;;;;;;;12.48;4.85;;;;;;;1.85;55.88;101236.66;7738483;32;40857;-71
2022/01/18 07:57:14;;;;;;;14.43;5.28;;;;;;;1.50;57.25;101252.34;7738278;32;39974;-71
2022/01/18 08:01:30;;;;;;;8.90;4.20;;;;;;;1.82;56.06;101252.34;7738279;32;37154;-71
2022/01/18 08:05:48;;;;;;;13.13;5.22;;;;;;;1.92;55.83;101258.31;7738369;32;37004;-71
2022/01/18 08:10:06;;;;;;;15.32;5.37;;;;;;;1.87;56.20;101266.91;7738231;32;39128;-72
2022/01/18 08:14:24;;;;;;;12.30;4.87;;;;;;;2.59;54.42;101268.34;7738067;32;39899;-71
2022/01/18 08:18:40;;;;;;;11.43;4.72;;;;;;;2.48;54.52;101268.78;7738152;32;38947;-71
2022/01/18 08:22:57;;;;;;;10.95;4.82;;;;;;;2.21;55.62;101276.44;7738107;32;37667;-71
2022/01/18 08:27:14;;;;;;;12.77;5.05;;;;;;;2.65;54.74;101284.81;7738113;32;39394;-71
2022/01/18 08:31:33;;;;;;;9.77;4.57;;;;;;;2.26;55.13;101286.66;7737962;32;39961;-71
2022/01/18 08:35:50;;;;;;;8.40;4.47;;;;;;;2.90;53.87;101294.31;7738274;32;39511;-72
2022/01/18 08:40:07;;;;;;;18.45;5.10;;;;;;;3.23;52.93;101302.03;7724276;32;37071;-70
2022/01/18 08:44:23;;;;;;;12.23;4.60;;;;;;;3.48;52.55;101289.06;7737838;32;40144;-72
2022/01/18 08:48:39;;;;;;;14.60;5.07;;;;;;;3.48;53.11;101297.16;7737745;32;40952;-72
2022/01/18 08:52:55;;;;;;;12.57;4.03;;;;;;;3.67;52.05;101306.53;7736338;32;38616;-72
2022/01/18 08:57:13;;;;;;;10.32;4.20;;;;;;;3.84;52.26;101311.72;7737512;32;38053;-71
2022/01/18 09:01:29;;;;;;;13.80;4.62;;;;;;;3.91;52.32;101307.22;7723758;32;39305;-71
2022/01/18 09:05:46;;;;;;;8.90;4.10;;;;;;;4.21;51.30;101317.91;7737456;32;40027;-71
2022/01/18 09:10:07;;;;;;;17.98;5.82;;;;;;;4.39;50.72;101336.38;7737355;32;38015;-72
2022/01/18 09:14:23;;;;;;;7.35;4.40;;;;;;;4.56;49.73;101342.34;7737147;32;37221;-71
2022/01/18 09:18:39;;;;;;;11.68;4.70;;;;;;;4.64;49.27;101329.53;7737144;32;39313;-72
2022/01/18 09:22:56;;;;;;;8.15;4.32;;;;;;;4.43;50.55;101343.91;7737042;32;39926;-72
2022/01/18 09:27:13;;;;;;;9.38;4.25;;;;;;;4.69;49.44;101351.41;7737082;32;37634;-71
2022/01/18 09:31:29;;;;;;;11.05;4.37;;;;;;;4.62;48.75;101374.84;7736805;32;37672;-71
2022/01/18 09:35:46;;;;;;;10.15;4.57;;;;;;;4.89;49.03;101380.47;7736604;32;40272;-72
2022/01/18 09:40:04;;;;;;;11.25;4.35;;;;;;;5.10;48.67;101390.38;7736577;32;39684;-72
2022/01/18 09:44:21;;;;;;;9.68;4.12;;;;;;;5.49;47.92;101385.47;7736699;32;37538;-71
2022/01/18 09:48:37;;;;;;;13.95;4.68;;;;;;;5.68;47.35;101389.31;7736493;32;37022;-72
2022/01/18 09:52:55;;;;;;;11.77;4.03;;;;;;;6.03;46.85;101397.41;7736354;32;39468;-71
2022/01/18 09:57:12;;;;;;;11.88;4.50;;;;;;;5.75;46.22;101384.78;7736068;32;40751;-70
2022/01/18 10:01:29;;;;;;;11.12;4.35;;;;;;;5.85;46.52;101379.81;7735641;32;38150;-72
2022/01/18 10:05:49;;;;;;;10.82;4.47;;;;;;;6.16;46.57;101373.91;7738704;32;37158;-71
2022/01/18 10:10:06;;;;;;;10.65;3.75;;;;;;;6.22;46.00;101374.97;7739422;32;39297;-72
2022/01/18 10:14:22;;;;;;;11.25;3.90;;;;;;;6.50;44.60;101366.72;7739566;32;40694;-70
2022/01/18 10:18:50;;;;;;;10.02;4.30;;;;;;;6.51;44.24;101362.13;7739351;32;38461;-71
2022/01/18 10:23:06;;;;;;;8.18;3.92;;;;;;;6.76;44.00;101344.22;7739530;32;38214;-71
2022/01/18 10:27:34;;;;;;;9.68;4.68;;;;;;;6.64;44.70;101335.03;7739479;32;40464;-71
2022/01/18 10:36:12;;;;;;;13.20;4.07;;;;;;;6.93;44.15;101354.63;7739186;32;37858;-72
2022/01/18 10:40:33;;;;;;;8.70;3.70;;;;;;;6.68;43.83;101347.12;7739411;32;36981;-72
2022/01/18 10:45:03;;;;;;;11.40;3.67;;;;;;;6.79;44.18;101361.09;7739305;32;40016;-69
2022/01/18 10:49:39;;;;;;;14.23;4.03;;;;;;;7.27;41.45;101350.00;7726942;32;40718;-72
2022/01/18 10:54:03;;;;;;;13.10;3.97;;;;;;;7.74;42.16;101349.88;7739129;32;38854;-72
2022/01/18 10:58:22;;;;;;;11.90;4.15;;;;;;;8.31;40.28;101360.88;7739106;32;37831;-72
2022/01/18 11:02:40;;;;;;;8.70;3.28;;;;;;;8.55;40.70;101362.81;7738893;32;38488;-70
2022/01/18 11:06:59;;;;;;;12.60;3.75;;;;;;;8.76;39.68;101352.63;7739037;32;40602;-72
2022/01/18 11:11:25;;;;;;;10.32;3.62;;;;;;;8.89;39.28;101347.09;7738970;32;38023;-71
2022/01/18 11:15:45;;;;;;;9.98;3.55;;;;;;;8.89;37.35;101347.09;7738109;32;37119;-71
2022/01/18 11:20:04;;;;;;;9.00;3.60;;;;;;;9.10;38.00;101369.50;7738981;32;39381;-71
2022/01/18 11:24:21;;;;;;;9.73;3.62;;;;;;;9.35;36.99;101366.75;7738886;32;39652;-72
2022/01/18 11:28:37;;;;;;;10.27;3.92;;;;;;;9.39;35.89;101373.41;7738671;32;38550;-72
2022/01/18 11:32:55;;;;;;;9.90;3.30;;;;;;;9.85;36.23;101373.94;7738665;32;37914;-72
2022/01/18 11:37:44;;;;;;;10.85;3.20;;;;;;;9.56;36.00;101369.03;7738654;32;39345;-71
2022/01/18 11:42:08;;;;;;;10.18;3.37;;;;;;;9.78;35.68;101366.69;7738541;32;39847;-73
2022/01/18 11:46:29;;;;;;;11.35;3.45;;;;;;;9.52;35.87;101378.72;7738289;32;38204;-74
2022/01/18 11:50:50;;;;;;;11.02;3.55;;;;;;;9.81;35.98;101364.56;7738523;32;37436;-71
2022/01/18 11:55:06;;;;;;;8.70;3.37;;;;;;;9.87;34.09;101360.94;7738015;32;39356;-73
2022/01/18 11:59:29;;;;;;;10.63;3.37;;;;;;;8.88;35.83;101367.16;7723081;32;39866;-75
2022/01/18 12:03:51;;;;;;;11.17;4.00;;;;;;;8.90;36.11;101389.56;7736112;32;38586;-73
2022/01/18 12:08:07;;;;;;;7.60;3.17;;;;;;;8.86;35.89;101395.66;7738149;32;37053;-73
2022/01/18 12:12:46;;;;;;;8.68;3.25;;;;;;;8.50;36.67;101413.47;7738292;32;39333;-74
2022/01/18 12:17:16;;;;;;;5.80;3.00;;;;;;;8.12;36.81;101416.97;7738091;32;39949;-75
2022/01/18 12:21:33;;;;;;;9.50;3.85;;;;;;;7.59;38.73;101420.69;7738057;32;37959;-73
2022/01/18 12:26:02;;;;;;;8.40;3.72;;;;;;;7.39;37.67;101432.41;7737662;32;37208;-75
2022/01/18 12:30:38;;;;;;;8.95;3.53;;;;;;;7.82;37.98;101425.66;7737648;32;39042;-75
2022/01/18 12:35:01;;;;;;;13.23;3.83;;;;;;;8.36;36.88;101390.94;7737784;32;40819;-75
2022/01/18 12:39:17;;;;;;;10.38;3.55;;;;;;;8.69;37.47;101384.47;7736579;32;37646;-74
2022/01/18 12:48:10;;;;;;;8.88;3.40;;;;;;;9.19;34.65;101374.44;7737545;32;39401;-74
2022/01/18 12:52:26;;;;;;;9.15;3.55;;;;;;;9.12;34.58;101368.22;7737436;32;39590;-74
2022/01/18 12:56:43;;;;;;;10.35;3.30;;;;;;;9.66;34.74;101379.41;7737373;32;37847;-74
2022/01/18 13:01:09;;;;;;;13.13;3.65;;;;;;;10.17;34.30;101376.47;7737196;32;37241;-75
2022/01/18 13:05:34;;;;;;;8.63;3.53;;;;;;;9.67;33.54;101382.97;7737339;32;40023;-78
2022/01/18 13:10:09;;;;;;;11.55;3.75;;;;;;;10.13;32.92;101384.28;7737264;32;40986;-78
2022/01/18 13:14:29;;;;;;;9.57;2.70;;;;;;;9.93;33.79;101385.38;7733356;32;38742;-78
2022/01/18 13:23:28;;;;;;;11.10;3.50;;;;;;;9.70;33.34;101399.66;7724997;32;39281;-78
2022/01/18 13:27:50;;;;;;;8.13;3.30;;;;;;;9.46;34.09;101406.00;7723239;32;38875;-78
2022/01/18 13:32:19;;;;;;;12.20;3.75;;;;;;;9.32;33.98;101394.44;7723306;32;38732;-77
2022/01/18 13:36:51;;;;;;;9.55;3.17;;;;;;;9.95;32.81;101404.19;7735736;32;37919;-77
2022/01/18 13:41:07;;;;;;;11.18;3.50;;;;;;;10.17;32.29;101401.81;7739473;32;39237;-78
2022/01/18 13:45:26;;;;;;;7.35;2.78;;;;;;;11.35;30.94;101406.75;7725030;32;39886;-77
2022/01/18 13:49:43;;;;;;;8.60;3.28;;;;;;;11.27;30.11;101406.06;7739874;32;37871;-79
2022/01/18 13:54:04;;;;;;;8.57;3.03;;;;;;;11.59;31.13;101404.84;7739537;32;36831;-78
2022/01/18 13:58:23;;;;;;;11.82;3.08;;;;;;;13.05;27.16;101403.59;7738878;32;39022;-78
2022/01/18 14:02:42;;;;;;;7.80;3.03;;;;;;;14.24;25.08;101406.87;7739765;32;39357;-78
2022/01/18 14:07:02;;;;;;;10.27;3.08;;;;;;;16.71;21.87;101401.06;7738811;32;38623;-79
2022/01/18 14:11:22;;;;;;;9.93;2.87;;;;;;;18.63;18.68;101405.00;7739045;32;37089;-78
2022/01/18 14:15:43;;;;;;;8.90;2.78;;;;;;;20.10;17.38;101392.78;7739014;32;40027;-79
2022/01/18 14:20:15;;;;;;;8.05;2.45;;;;;;;19.69;17.55;101404.31;7738964;32;40873;-79
2022/01/18 14:24:39;;;;;;;7.82;2.75;;;;;;;18.84;17.71;101423.09;7739343;32;37911;-78
2022/01/18 14:29:03;;;;;;;6.70;2.72;;;;;;;19.39;17.29;101428.44;7738815;32;37042;-78
2022/01/18 14:33:19;;;;;;;9.68;3.20;;;;;;;19.45;17.47;101416.19;7738153;32;39893;-79
2022/01/18 14:37:39;;;;;;;9.73;3.10;;;;;;;19.46;17.30;101428.09;7738291;32;39898;-79
2022/01/18 14:42:05;;;;;;;9.63;2.90;;;;;;;18.18;18.63;101432.59;7738933;32;37855;-76
2022/01/18 14:46:37;;;;;;;12.70;3.53;;;;;;;16.96;19.79;101435.28;7739115;32;37185;-78
2022/01/18 14:50:54;;;;;;;9.23;3.83;;;;;;;16.88;20.06;101433.91;7737643;32;39531;-78
2022/01/18 14:55:10;;;;;;;11.82;3.60;;;;;;;16.51;20.62;101434.91;7724763;32;40850;-78
2022/01/18 14:59:26;;;;;;;11.95;3.28;;;;;;;16.18;20.89;101430.69;7692622;32;37980;-78
2022/01/18 15:03:42;;;;;;;12.45;3.25;;;;;;;15.83;21.59;101436.81;7728164;32;37951;-79
2022/01/18 15:07:59;;;;;;;13.15;3.80;;;;;;;15.18;22.35;101440.50;7737279;32;39332;-74
2022/01/18 15:12:15;;;;;;;13.43;3.60;;;;;;;13.38;24.77;101453.97;7738539;32;40953;-77
2022/01/18 15:16:31;;;;;;;11.02;3.55;;;;;;;12.17;26.66;101455.03;7738258;32;38925;-76
2022/01/18 15:20:47;;;;;;;13.70;3.90;;;;;;;11.03;34.01;101458.97;7737811;32;37082;-76
2022/01/18 15:25:04;;;;;;;9.02;4.05;;;;;;;9.63;31.62;101472.44;7738171;32;39557;-76
2022/01/18 15:29:20;;;;;;;11.30;4.80;;;;;;;9.32;32.13;101481.53;7737148;32;39584;-75
2022/01/18 15:33:36;;;;;;;15.25;5.47;;;;;;;8.06;34.71;101475.72;7738517;32;37905;-76
2022/01/18 15:37:52;;;;;;;17.58;5.95;;;;;;;7.26;37.00;101476.69;7738046;32;38225;-75
2022/01/18 15:42:08;;;;;;;15.02;5.12;;;;;;;7.01;37.60;101481.88;7737851;32;39280;-76
2022/01/18 15:46:26;;;;;;;14.82;5.12;;;;;;;6.61;38.61;101480.97;7738235;32;40719;-75
2022/01/18 15:50:42;;;;;;;15.43;5.37;;;;;;;6.48;38.90;101493.41;7737376;32;37811;-75
2022/01/18 15:54:59;;;;;;;11.52;4.87;;;;;;;6.05;39.55;101504.47;7737925;32;37135;-75
2022/01/18 15:59:16;;;;;;;10.98;5.00;;;;;;;5.99;39.63;101516.94;7737628;32;39216;-75
2022/01/18 16:03:33;;;;;;;14.10;5.68;;;;;;;5.74;40.33;101512.97;7737305;32;39656;-75
2022/01/18 16:07:51;;;;;;;12.40;5.75;;;;;;;5.70;40.50;101519.84;7737796;32;37561;-74
2022/01/18 16:12:08;;;;;;;14.20;5.20;;;;;;;4.64;43.20;101534.00;7737378;32;38118;-74
2022/01/18 16:16:24;;;;;;;16.05;5.78;;;;;;;4.94;42.73;101518.56;7709517;32;39450;-75
2022/01/18 16:20:40;;;;;;;15.23;5.70;;;;;;;5.10;42.55;101512.03;7710416;32;39705;-75
2022/01/18 16:24:56;;;;;;;15.10;6.68;;;;;;;4.77;42.97;101517.94;7712132;32;38636;-74
2022/01/18 16:29:12;;;;;;;17.83;6.78;;;;;;;4.02;45.10;101541.53;7737503;32;36809;-74
2022/01/18 16:33:29;;;;;;;16.40;6.90;;;;;;;4.81;43.30;101546.28;7737011;32;39897;-73
2022/01/18 16:37:45;;;;;;;15.32;5.97;;;;;;;4.00;46.05;101545.41;7737495;32;40545;-75
2022/01/18 16:42:01;;;;;;;12.48;5.68;;;;;;;4.13;45.72;101545.63;7736625;32;38577;-73
2022/01/18 16:46:20;;;;;;;12.35;6.10;;;;;;;4.03;45.76;101543.19;7737239;32;37174;-73
2022/01/18 16:50:37;;;;;;;17.30;6.12;;;;;;;3.79;46.16;101546.97;7737349;32;39962;-71
2022/01/18 16:54:53;;;;;;;19.90;7.30;;;;;;;3.61;46.74;101552.72;7736994;32;40554;-73
2022/01/18 16:59:09;;;;;;;16.83;6.75;;;;;;;4.19;45.95;101550.28;7736998;32;38656;-72
2022/01/18 17:03:25;;;;;;;15.20;6.72;;;;;;;4.08;46.24;101559.66;7723019;32;37042;-73
2022/01/18 17:07:44;;;;;;;17.00;6.68;;;;;;;3.83;47.06;101563.62;7737404;32;39525;-74
2022/01/18 17:12:00;;;;;;;13.10;6.28;;;;;;;3.13;49.63;101563.72;7736572;32;42389;-75
2022/01/18 17:16:17;;;;;;;11.65;6.10;;;;;;;3.57;47.92;101559.53;7735837;32;37604;-72
2022/01/18 17:20:33;;;;;;;18.52;5.72;;;;;;;3.48;47.95;101552.50;7736626;32;37074;-74
2022/01/18 17:24:49;;;;;;;13.27;6.07;;;;;;;3.74;47.05;101555.66;7722079;32;39386;-73
2022/01/18 17:29:06;;;;;;;11.77;5.78;;;;;;;3.57;47.78;101570.31;7736774;32;40000;-72
2022/01/18 17:33:22;;;;;;;12.52;5.87;;;;;;;3.79;47.12;101570.44;7735459;32;37883;-72
2022/01/18 17:37:39;;;;;;;16.30;5.85;;;;;;;3.51;48.39;101574.56;7736315;32;38145;-74
2022/01/18 17:41:55;;;;;;;13.38;5.57;;;;;;;3.60;47.95;101586.09;7736005;32;39239;-71
2022/01/18 17:46:11;;;;;;;17.85;6.20;;;;;;;3.48;48.17;101582.16;7735686;32;39856;-72
2022/01/18 17:50:28;;;;;;;12.27;6.12;;;;;;;3.22;48.92;101580.66;7735507;32;38734;-72
2022/01/18 17:54:44;;;;;;;14.52;6.68;;;;;;;3.69;47.70;101568.84;7734835;32;37854;-72
2022/01/18 17:59:01;;;;;;;20.90;7.55;;;;;;;3.38;48.30;101575.16;7722009;32;40028;-70
2022/01/18 18:03:17;;;;;;;19.12;6.93;;;;;;;3.52;48.08;101576.25;7735032;32;40543;-69
2022/01/18 18:07:33;;;;;;;19.85;7.32;;;;;;;3.22;49.22;101577.97;7735390;32;37706;-72
2022/01/18 18:11:49;;;;;;;18.23;7.70;;;;;;;3.32;48.47;101578.56;7734996;32;37635;-71
2022/01/18 18:16:06;;;;;;;17.12;7.53;;;;;;;3.32;48.87;101580.44;7734903;32;38897;-70
2022/01/18 18:20:27;;;;;;;18.87;6.75;;;;;;;3.07;49.48;101590.53;7729382;32;40067;-72
2022/01/18 18:24:43;;;;;;;12.18;5.82;;;;;;;3.18;49.34;101587.44;7734975;32;37846;-72
2022/01/18 18:28:59;;;;;;;17.23;6.40;;;;;;;2.97;49.84;101594.31;7739021;32;36654;-68
2022/01/18 18:33:17;;;;;;;14.85;6.85;;;;;;;3.29;48.94;101600.50;7731423;32;39244;-71
2022/01/18 18:37:34;;;;;;;17.27;7.68;;;;;;;3.05;49.25;101593.41;7711370;32;42390;-71
2022/01/18 18:42:16;;;;;;;20.90;8.40;;;;;;;3.37;48.63;101592.34;7697801;32;37583;-71
2022/01/18 18:46:32;;;;;;;16.83;7.90;;;;;;;3.28;49.12;101585.34;7710966;32;37180;-71
2022/01/18 18:50:50;;;;;;;16.37;7.15;;;;;;;3.37;48.54;101589.66;7712077;32;39165;-72
2022/01/18 18:55:14;;;;;;;15.38;7.10;;;;;;;2.97;50.14;101604.25;7711096;32;40048;-71
2022/01/18 19:03:47;;;;;;;19.15;6.70;;;;;;;3.06;50.85;101594.28;7733547;32;38008;-74
2022/01/18 19:08:03;;;;;;;16.08;7.03;;;;;;;2.85;51.70;101584.97;7738232;32;39116;-71
2022/01/18 19:12:19;;;;;;;18.95;7.37;;;;;;;2.93;51.31;101578.66;7738098;32;39476;-72
2022/01/18 19:16:37;;;;;;;16.08;6.82;;;;;;;3.01;51.16;101582.16;7737537;32;38687;-71
2022/01/18 19:20:56;;;;;;;19.83;7.53;;;;;;;2.63;52.72;101600.03;7731151;32;37114;-71
2022/01/18 19:25:13;;;;;;;15.57;7.12;;;;;;;2.70;52.04;101621.72;7711656;32;39416;-69
2022/01/18 19:29:29;;;;;;;21.42;7.10;;;;;;;2.55;52.49;101629.69;7737982;32;40711;-72
2022/01/18 19:33:45;;;;;;;18.90;6.82;;;;;;;2.18;54.15;101629.28;7738406;32;37830;-71
2022/01/18 19:38:03;;;;;;;18.55;7.68;;;;;;;2.02;54.65;101614.03;7736734;32;37263;-70
2022/01/18 19:42:34;;;;;;;26.70;7.18;;;;;;;2.01;54.76;101616.87;7738154;32;39131;-73
2022/01/18 19:46:51;;;;;;;20.35;7.10;;;;;;;1.99;55.00;101640.44;7737273;32;40250;-73
2022/01/18 19:51:08;;;;;;;20.65;7.35;;;;;;;1.91;55.67;101659.25;7737616;32;37967;-71
2022/01/18 19:55:27;;;;;;;15.27;7.30;;;;;;;1.55;56.98;101673.03;7738159;32;37142;-72
2022/01/18 19:59:48;;;;;;;27.92;8.10;;;;;;;1.84;56.19;101653.72;7737295;32;39504;-72
2022/01/18 20:04:08;;;;;;;16.58;7.25;;;;;;;1.65;56.60;101655.72;7737906;32;40139;-71
2022/01/18 20:08:26;;;;;;;23.40;7.50;;;;;;;1.89;55.47;101659.44;7737249;32;37610;-71
2022/01/18 20:12:42;;;;;;;19.17;7.50;;;;;;;1.97;55.10;101662.12;7723979;32;36947;-71
2022/01/18 20:17:04;;;;;;;14.32;6.75;;;;;;;1.93;55.09;101649.16;7738000;32;37745;-73
2022/01/18 20:21:21;;;;;;;16.35;7.87;;;;;;;2.00;54.93;101645.66;7729462;32;39939;-74
2022/01/18 20:25:41;;;;;;;21.48;7.82;;;;;;;2.07;54.39;101643.13;7737762;32;39377;-70
2022/01/18 20:29:59;;;;;;;20.40;7.78;;;;;;;2.02;54.29;101640.94;7737106;32;37975;-72
2022/01/18 20:34:15;;;;;;;20.80;8.38;;;;;;;1.91;54.72;101629.66;7737780;32;39390;-73
2022/01/18 20:38:31;;;;;;;20.00;8.45;;;;;;;1.53;55.35;101623.97;7736119;32;40723;-71
2022/01/18 20:47:23;;;;;;;19.92;7.97;;;;;;;1.21;56.86;101625.59;7741854;32;37670;-72
2022/01/18 20:51:39;;;;;;;20.58;8.52;;;;;;;1.55;55.89;101624.62;7735453;32;39197;-71
2022/01/18 20:55:56;;;;;;;23.67;7.72;;;;;;;1.60;55.66;101641.09;7749916;32;40707;-72
2022/01/18 21:00:12;;;;;;;15.93;8.48;;;;;;;1.39;56.16;101655.88;7750352;32;38529;-72
2022/01/18 21:04:29;;;;;;;16.52;7.45;;;;;;;1.45;55.91;101665.97;7745182;32;37094;-72
2022/01/18 21:08:45;;;;;;;19.23;8.32;;;;;;;1.39;56.02;101672.00;7736196;32;39180;-73
2022/01/18 21:13:01;;;;;;;21.85;7.82;;;;;;;1.59;55.29;101693.22;7737196;32;39880;-72
2022/01/18 21:17:22;;;;;;;21.02;8.27;;;;;;;1.53;55.61;101707.31;7737146;32;37794;-72
2022/01/18 21:21:38;;;;;;;23.15;8.30;;;;;;;1.43;55.73;101711.00;7731308;32;37612;-71
2022/01/18 21:25:55;;;;;;;20.35;8.55;;;;;;;1.59;55.15;101712.03;7722770;32;40149;-72
2022/01/18 21:30:12;;;;;;;20.12;9.52;;;;;;;2.12;53.59;101702.66;7735870;32;40798;-73
2022/01/18 21:34:28;;;;;;;24.92;7.60;;;;;;;1.90;54.32;101701.47;7735887;32;37688;-72
2022/01/18 21:38:44;;;;;;;23.70;7.62;;;;;;;1.84;55.46;101700.25;7722311;32;37129;-71
2022/01/18 21:43:01;;;;;;;18.48;8.43;;;;;;;1.95;54.76;101687.50;7735668;32;39389;-74
2022/01/18 21:47:17;;;;;;;22.08;8.68;;;;;;;1.64;55.73;101694.37;7735225;32;40552;-74
2022/01/18 21:51:35;;;;;;;22.13;7.70;;;;;;;1.82;55.82;101683.47;7736169;32;37932;-75